Time;durP1;ratioP1;P1;durP2;ratioP2;P2;SDS_P1;SDS_P2;PMS_P1;PMS_P2;Temp;Humidity;BMP_temperature;BMP_pressure;BME280_temperature;BME280_humidity;BME280_pressure;Samples;Min_cycle;Max_cycle;Signal;HPM_P1;HPM_P2
2023/05/09 00:01:54;;;;;;;19.07;15.67;;;;;;;;;;5015476;28;20459;-68
2023/05/09 00:04:23;;;;;;;17.63;15.80;;;;;;;;;;5015094;28;20441;-68
2023/05/09 00:06:50;;;;;;;19.60;17.50;;;;;;;;;;5014946;28;20445;-68
2023/05/09 00:09:17;;;;;;;19.20;17.20;;;;;;;;;;5014925;28;20446;-68
2023/05/09 00:11:45;;;;;;;28.60;17.60;;;;;;;;;;5014788;28;20548;-68
2023/05/09 00:14:12;;;;;;;19.50;17.17;;;;;;;;;;5014296;28;20831;-69
2023/05/09 00:16:40;;;;;;;21.43;19.27;;;;;;;;;;5014440;28;20542;-68
2023/05/09 00:19:07;;;;;;;21.60;19.30;;;;;;;;;;5014633;28;20967;-68
2023/05/09 00:21:35;;;;;;;22.23;19.93;;;;;;;;;;5015068;28;20542;-68
2023/05/09 00:24:03;;;;;;;20.83;18.43;;;;;;;;;;5014203;28;20941;-68
2023/05/09 00:26:30;;;;;;;22.50;19.67;;;;;;;;;;5014228;28;20944;-68
2023/05/09 00:28:57;;;;;;;21.50;19.23;;;;;;;;;;5014129;28;20925;-68
2023/05/09 00:31:24;;;;;;;21.83;19.30;;;;;;;;;;5014175;28;20531;-68
2023/05/09 00:33:51;;;;;;;23.50;19.30;;;;;;;;;;5014006;28;20450;-68
2023/05/09 00:36:18;;;;;;;24.97;20.40;;;;;;;;;;5013581;28;20442;-68
2023/05/09 00:38:47;;;;;;;22.70;19.30;;;;;;;;;;5014090;28;20808;-68
2023/05/09 00:41:15;;;;;;;24.10;19.73;;;;;;;;;;5014669;28;20443;-68
2023/05/09 00:43:42;;;;;;;28.70;20.00;;;;;;;;;;5014177;28;20444;-68
2023/05/09 00:46:09;;;;;;;23.17;20.27;;;;;;;;;;5014216;28;20455;-68
2023/05/09 00:48:36;;;;;;;23.53;20.80;;;;;;;;;;5014381;28;20448;-68
2023/05/09 00:51:03;;;;;;;20.60;18.37;;;;;;;;;;5014565;28;20450;-68
2023/05/09 00:53:31;;;;;;;24.23;20.40;;;;;;;;;;5014083;28;20452;-68
2023/05/09 00:56:00;;;;;;;22.10;19.70;;;;;;;;;;5014848;28;20486;-69
2023/05/09 00:58:28;;;;;;;22.50;20.10;;;;;;;;;;5014003;28;20447;-68
2023/05/09 01:00:55;;;;;;;22.70;20.40;;;;;;;;;;5013693;28;20446;-68
2023/05/09 01:03:22;;;;;;;26.67;21.03;;;;;;;;;;5013836;28;20986;-68
2023/05/09 01:06:04;;;;;;;24.17;20.43;;;;;;;;;;5013631;28;20486;-67
2023/05/09 01:08:36;;;;;;;22.43;20.13;;;;;;;;;;5014177;28;20462;-68
2023/05/09 01:11:09;;;;;;;23.10;20.67;;;;;;;;;;5013890;28;20427;-68
2023/05/09 01:13:39;;;;;;;22.97;20.67;;;;;;;;;;5014141;28;20435;-68
2023/05/09 01:16:08;;;;;;;22.40;20.00;;;;;;;;;;5013892;28;20473;-68
2023/05/09 01:18:40;;;;;;;23.40;20.10;;;;;;;;;;5013375;28;20450;-69
2023/05/09 01:21:11;;;;;;;23.73;20.23;;;;;;;;;;5013961;28;20443;-68
2023/05/09 01:23:54;;;;;;;23.43;20.80;;;;;;;;;;5013800;28;20439;-68
2023/05/09 01:26:26;;;;;;;28.27;20.67;;;;;;;;;;5013807;28;20443;-68
2023/05/09 01:29:02;;;;;;;23.83;21.00;;;;;;;;;;5013736;28;20782;-68
2023/05/09 01:31:31;;;;;;;25.67;21.30;;;;;;;;;;5014178;28;20431;-68
2023/05/09 01:34:00;;;;;;;23.70;21.20;;;;;;;;;;5013551;28;20440;-68
2023/05/09 01:36:31;;;;;;;24.63;21.73;;;;;;;;;;5013531;28;20586;-68
2023/05/09 01:38:59;;;;;;;24.80;21.00;;;;;;;;;;5013251;28;20481;-68
2023/05/09 01:41:31;;;;;;;25.70;21.43;;;;;;;;;;5013585;28;20453;-68
2023/05/09 01:43:59;;;;;;;30.23;21.50;;;;;;;;;;5013592;28;20442;-68
2023/05/09 01:46:28;;;;;;;30.23;23.27;;;;;;;;;;5013759;28;20470;-68
2023/05/09 01:48:58;;;;;;;24.83;21.67;;;;;;;;;;5017394;28;20807;-69
2023/05/09 01:51:26;;;;;;;23.23;19.83;;;;;;;;;;5017975;28;20455;-67
2023/05/09 01:53:54;;;;;;;27.20;20.80;;;;;;;;;;5017402;28;20449;-67
2023/05/09 01:56:23;;;;;;;23.80;20.83;;;;;;;;;;5017221;28;20482;-68
2023/05/09 01:58:50;;;;;;;23.43;20.93;;;;;;;;;;5017454;28;20449;-68
2023/05/09 02:01:19;;;;;;;24.13;20.93;;;;;;;;;;5016858;28;20461;-68
2023/05/09 02:03:49;;;;;;;23.47;21.07;;;;;;;;;;5017401;28;20440;-68
2023/05/09 02:06:19;;;;;;;21.87;19.60;;;;;;;;;;5017215;28;20499;-68
2023/05/09 02:08:47;;;;;;;23.33;20.17;;;;;;;;;;5017033;28;20454;-68
2023/05/09 02:11:14;;;;;;;25.53;21.70;;;;;;;;;;5016965;28;20808;-68
2023/05/09 02:13:41;;;;;;;29.13;20.23;;;;;;;;;;5016714;28;20934;-68
2023/05/09 02:16:09;;;;;;;22.87;20.43;;;;;;;;;;5016757;28;20501;-68
2023/05/09 02:18:36;;;;;;;23.80;20.53;;;;;;;;;;5017453;28;20434;-68
2023/05/09 02:21:04;;;;;;;23.40;20.90;;;;;;;;;;5016941;28;20456;-68
2023/05/09 02:23:32;;;;;;;23.00;20.60;;;;;;;;;;5016554;28;21123;-68
2023/05/09 02:25:59;;;;;;;24.50;21.57;;;;;;;;;;5016922;28;20442;-68
2023/05/09 02:28:28;;;;;;;25.87;20.50;;;;;;;;;;5016964;28;20443;-68
2023/05/09 02:30:56;;;;;;;22.50;20.10;;;;;;;;;;5016202;28;20473;-68
2023/05/09 02:33:24;;;;;;;24.77;19.23;;;;;;;;;;5016516;28;20453;-68
2023/05/09 02:35:53;;;;;;;23.80;20.87;;;;;;;;;;5016379;28;20484;-68
2023/05/09 02:38:21;;;;;;;24.53;21.10;;;;;;;;;;5016314;28;20489;-68
2023/05/09 02:40:50;;;;;;;21.63;19.33;;;;;;;;;;5016417;28;20451;-68
2023/05/09 02:43:18;;;;;;;22.03;19.63;;;;;;;;;;5016626;28;20780;-69
2023/05/09 02:45:45;;;;;;;22.53;20.23;;;;;;;;;;5015898;28;20910;-68
2023/05/09 02:48:12;;;;;;;23.73;20.67;;;;;;;;;;5016778;28;20443;-68
2023/05/09 02:50:41;;;;;;;20.97;18.77;;;;;;;;;;5016559;28;20456;-68
2023/05/09 02:53:08;;;;;;;22.30;19.20;;;;;;;;;;5015952;28;20437;-68
2023/05/09 02:55:36;;;;;;;21.50;19.23;;;;;;;;;;5016068;28;20982;-68
2023/05/09 02:58:05;;;;;;;25.70;19.30;;;;;;;;;;5015966;28;20442;-68
2023/05/09 03:00:32;;;;;;;22.30;19.90;;;;;;;;;;5015681;28;20795;-67
2023/05/09 03:02:59;;;;;;;25.17;18.60;;;;;;;;;;5016090;28;20446;-73
2023/05/09 03:05:27;;;;;;;23.10;19.13;;;;;;;;;;5015091;28;20453;-69
2023/05/09 03:07:54;;;;;;;21.77;19.00;;;;;;;;;;5015782;28;20486;-69
2023/05/09 03:10:21;;;;;;;21.80;19.27;;;;;;;;;;5015385;28;20447;-68
2023/05/09 03:12:48;;;;;;;23.40;19.30;;;;;;;;;;5015505;28;20446;-68
2023/05/09 03:15:17;;;;;;;24.50;18.40;;;;;;;;;;5015563;28;20843;-68
2023/05/09 03:17:44;;;;;;;22.17;19.73;;;;;;;;;;5015377;28;20458;-69
2023/05/09 03:20:11;;;;;;;22.10;19.80;;;;;;;;;;5015693;28;20442;-68
2023/05/09 03:22:38;;;;;;;21.50;19.13;;;;;;;;;;5015271;28;20458;-68
2023/05/09 03:25:06;;;;;;;23.03;20.30;;;;;;;;;;5015347;28;20453;-68
2023/05/09 03:27:33;;;;;;;22.53;20.23;;;;;;;;;;5015101;28;20451;-69
2023/05/09 03:30:00;;;;;;;23.07;20.67;;;;;;;;;;5015169;28;20457;-68
2023/05/09 03:32:29;;;;;;;22.53;20.13;;;;;;;;;;5015346;28;20443;-69
2023/05/09 03:34:56;;;;;;;22.80;19.97;;;;;;;;;;5015339;28;20446;-68
2023/05/09 03:37:23;;;;;;;21.37;19.17;;;;;;;;;;5015065;28;20484;-68
2023/05/09 03:39:50;;;;;;;21.37;19.27;;;;;;;;;;5015211;28;20443;-68
2023/05/09 03:42:18;;;;;;;21.73;19.13;;;;;;;;;;5015383;28;20529;-68
2023/05/09 03:44:45;;;;;;;21.93;19.27;;;;;;;;;;5015019;28;20450;-68
2023/05/09 03:47:12;;;;;;;21.30;19.10;;;;;;;;;;5014730;28;20450;-68
2023/05/09 03:49:41;;;;;;;21.20;18.73;;;;;;;;;;5015112;28;20450;-69
2023/05/09 03:52:08;;;;;;;20.77;18.70;;;;;;;;;;5014809;28;20455;-68
2023/05/09 03:54:35;;;;;;;22.60;18.13;;;;;;;;;;5014845;28;20493;-68
2023/05/09 03:57:03;;;;;;;24.07;19.77;;;;;;;;;;5014759;28;20487;-68
2023/05/09 03:59:30;;;;;;;20.50;18.40;;;;;;;;;;5014605;28;20509;-68
2023/05/09 04:01:57;;;;;;;21.00;18.80;;;;;;;;;;5014356;28;20553;-68
2023/05/09 04:04:24;;;;;;;22.47;19.53;;;;;;;;;;5015175;28;20446;-68
2023/05/09 04:06:53;;;;;;;25.67;18.90;;;;;;;;;;5014466;28;20450;-68
2023/05/09 04:09:20;;;;;;;20.70;17.93;;;;;;;;;;5014380;28;20445;-68
2023/05/09 04:11:47;;;;;;;20.20;18.10;;;;;;;;;;5013549;28;20758;-69
2023/05/09 04:14:14;;;;;;;18.63;16.73;;;;;;;;;;5014366;28;20932;-68
2023/05/09 04:16:42;;;;;;;21.27;18.47;;;;;;;;;;5014131;28;20478;-68
2023/05/09 04:19:09;;;;;;;20.43;18.37;;;;;;;;;;5014286;28;20450;-68
2023/05/09 04:21:37;;;;;;;21.43;18.80;;;;;;;;;;5013989;28;20450;-69
2023/05/09 04:24:06;;;;;;;19.67;17.77;;;;;;;;;;5014349;28;20454;-68
2023/05/09 04:26:36;;;;;;;22.83;20.43;;;;;;;;;;5014299;28;20454;-68
2023/05/09 04:29:04;;;;;;;20.23;18.20;;;;;;;;;;5014571;28;20439;-69
2023/05/09 04:31:31;;;;;;;20.63;18.43;;;;;;;;;;5014291;28;20465;-68
2023/05/09 04:33:58;;;;;;;23.10;17.57;;;;;;;;;;5013950;28;20541;-68
2023/05/09 04:36:26;;;;;;;19.43;17.33;;;;;;;;;;5013630;28;20617;-68
2023/05/09 04:38:53;;;;;;;22.43;20.03;;;;;;;;;;5014494;28;20544;-68
2023/05/09 04:41:22;;;;;;;23.20;18.30;;;;;;;;;;5013727;28;20453;-68
2023/05/09 04:43:50;;;;;;;20.40;18.20;;;;;;;;;;5013824;28;20446;-68
2023/05/09 04:46:17;;;;;;;20.80;17.90;;;;;;;;;;5014141;28;20465;-70
2023/05/09 04:48:44;;;;;;;18.40;16.37;;;;;;;;;;5013986;28;20434;-70
2023/05/09 04:51:12;;;;;;;21.00;17.23;;;;;;;;;;5014359;28;20446;-71
2023/05/09 04:53:39;;;;;;;22.73;17.50;;;;;;;;;;5013860;28;20454;-69
2023/05/09 04:56:06;;;;;;;29.63;19.20;;;;;;;;;;5013462;28;20492;-71
2023/05/09 04:58:37;;;;;;;25.90;17.90;;;;;;;;;;5013533;28;20450;-71
2023/05/09 05:01:04;;;;;;;20.70;18.50;;;;;;;;;;5014112;28;20499;-71
2023/05/09 05:03:31;;;;;;;23.37;17.07;;;;;;;;;;5013723;28;20530;-70
2023/05/09 05:05:59;;;;;;;18.40;16.40;;;;;;;;;;5013536;28;20453;-72
2023/05/09 05:08:26;;;;;;;21.23;19.00;;;;;;;;;;5013706;28;20456;-72
2023/05/09 05:10:53;;;;;;;20.33;17.83;;;;;;;;;;5013698;28;20936;-72
2023/05/09 05:13:21;;;;;;;29.77;18.70;;;;;;;;;;5013784;28;20442;-71
2023/05/09 05:15:49;;;;;;;19.27;16.80;;;;;;;;;;5013632;28;20543;-71
2023/05/09 05:18:17;;;;;;;19.50;17.50;;;;;;;;;;5013684;28;20515;-71
2023/05/09 05:20:44;;;;;;;18.23;16.37;;;;;;;;;;5013646;28;20447;-71
2023/05/09 05:23:11;;;;;;;19.40;16.97;;;;;;;;;;5013120;28;20449;-71
2023/05/09 05:25:38;;;;;;;19.40;17.40;;;;;;;;;;5013623;28;20448;-72
2023/05/09 05:28:05;;;;;;;17.67;15.80;;;;;;;;;;5013590;28;20524;-70
2023/05/09 05:30:33;;;;;;;19.57;16.87;;;;;;;;;;5013655;28;20447;-71
2023/05/09 05:33:01;;;;;;;20.40;17.20;;;;;;;;;;5014023;28;20453;-71
2023/05/09 05:35:28;;;;;;;18.33;16.43;;;;;;;;;;5013877;28;20450;-72
2023/05/09 05:37:55;;;;;;;20.27;17.83;;;;;;;;;;5012833;28;20478;-71
2023/05/09 05:40:23;;;;;;;21.03;17.90;;;;;;;;;;5013204;28;20452;-72
2023/05/09 05:42:50;;;;;;;28.73;23.77;;;;;;;;;;5013115;28;20452;-72
2023/05/09 05:45:17;;;;;;;26.80;23.90;;;;;;;;;;5013156;28;20451;-72
2023/05/09 05:47:44;;;;;;;18.37;16.50;;;;;;;;;;5013042;28;20455;-72
2023/05/09 05:50:13;;;;;;;20.40;18.30;;;;;;;;;;5013585;28;20950;-72
2023/05/09 05:52:40;;;;;;;19.27;17.00;;;;;;;;;;5013042;28;20954;-72
2023/05/09 05:55:07;;;;;;;19.93;17.90;;;;;;;;;;5013424;28;20807;-72
2023/05/09 05:57:36;;;;;;;23.27;20.77;;;;;;;;;;5013213;28;20474;-72
2023/05/09 06:00:05;;;;;;;22.33;19.83;;;;;;;;;;5013415;28;20445;-72
2023/05/09 06:02:32;;;;;;;29.07;24.30;;;;;;;;;;5013284;28;20533;-73
2023/05/09 06:05:00;;;;;;;22.30;19.90;;;;;;;;;;5013409;28;20452;-72
2023/05/09 06:07:28;;;;;;;22.90;19.13;;;;;;;;;;5012970;28;20449;-72
2023/05/09 06:09:55;;;;;;;20.40;17.90;;;;;;;;;;5013167;28;20525;-72
2023/05/09 06:12:22;;;;;;;26.87;19.07;;;;;;;;;;5013727;28;20439;-72
2023/05/09 06:14:50;;;;;;;19.87;17.77;;;;;;;;;;5013218;28;20440;-72
2023/05/09 06:17:17;;;;;;;21.07;18.87;;;;;;;;;;5013176;28;20488;-72
2023/05/09 06:19:44;;;;;;;25.23;18.73;;;;;;;;;;5013134;28;20449;-72
2023/05/09 06:22:11;;;;;;;19.83;17.80;;;;;;;;;;5012913;28;20454;-72
2023/05/09 06:24:40;;;;;;;25.73;18.53;;;;;;;;;;5012792;28;20450;-72
2023/05/09 06:27:07;;;;;;;22.63;18.77;;;;;;;;;;5013114;28;20463;-72
2023/05/09 06:29:34;;;;;;;22.47;18.90;;;;;;;;;;5012734;28;20445;-72
2023/05/09 06:32:01;;;;;;;21.83;17.87;;;;;;;;;;5013053;28;20447;-72
2023/05/09 06:34:28;;;;;;;22.43;20.07;;;;;;;;;;5014523;28;20441;-72
2023/05/09 06:36:55;;;;;;;21.87;18.90;;;;;;;;;;5016332;28;20497;-72
2023/05/09 06:39:23;;;;;;;21.53;19.33;;;;;;;;;;5016786;28;20447;-72
2023/05/09 06:41:51;;;;;;;24.00;19.10;;;;;;;;;;5016193;28;20806;-72
2023/05/09 06:44:18;;;;;;;21.37;19.17;;;;;;;;;;5016557;28;20447;-72
2023/05/09 06:46:46;;;;;;;23.70;19.13;;;;;;;;;;5016904;28;20442;-72
2023/05/09 06:49:13;;;;;;;21.10;18.90;;;;;;;;;;5016018;28;20484;-72
2023/05/09 06:51:40;;;;;;;22.67;20.37;;;;;;;;;;5016328;28;20443;-72
2023/05/09 06:54:07;;;;;;;20.40;18.30;;;;;;;;;;5015927;28;20446;-72
2023/05/09 06:56:35;;;;;;;23.60;20.30;;;;;;;;;;5015861;28;20488;-72
2023/05/09 06:59:03;;;;;;;20.77;18.60;;;;;;;;;;5016109;28;20454;-72
2023/05/09 07:01:31;;;;;;;22.83;19.50;;;;;;;;;;5015811;28;20462;-72
2023/05/09 07:03:58;;;;;;;21.30;18.57;;;;;;;;;;5015920;28;20534;-72
2023/05/09 07:06:25;;;;;;;23.17;19.60;;;;;;;;;;5016297;28;20452;-72
2023/05/09 07:08:53;;;;;;;23.20;19.50;;;;;;;;;;5016546;28;20447;-72
2023/05/09 07:11:26;;;;;;;25.73;18.53;;;;;;;;;;5015657;28;20449;-71
2023/05/09 07:13:53;;;;;;;25.90;20.17;;;;;;;;;;5015996;28;20889;-72
2023/05/09 07:16:22;;;;;;;22.43;19.50;;;;;;;;;;5015986;28;20457;-71
2023/05/09 07:18:49;;;;;;;21.77;19.47;;;;;;;;;;5015430;28;20438;-72
2023/05/09 07:21:17;;;;;;;23.97;20.27;;;;;;;;;;5015502;28;20451;-72
2023/05/09 07:23:44;;;;;;;22.60;20.30;;;;;;;;;;5015351;28;20443;-72
2023/05/09 07:26:11;;;;;;;23.07;20.67;;;;;;;;;;5015390;28;20443;-72
2023/05/09 07:28:38;;;;;;;23.57;21.17;;;;;;;;;;5015285;28;20540;-72
2023/05/09 07:31:06;;;;;;;23.10;20.63;;;;;;;;;;5015195;28;20502;-72
2023/05/09 07:33:34;;;;;;;22.03;19.70;;;;;;;;;;5015720;28;20443;-71
2023/05/09 07:36:02;;;;;;;24.50;21.80;;;;;;;;;;5015395;28;20466;-72
2023/05/09 07:38:29;;;;;;;23.47;20.73;;;;;;;;;;5014960;28;20494;-72
2023/05/09 07:40:56;;;;;;;24.37;20.53;;;;;;;;;;5014999;28;20533;-72
2023/05/09 07:43:23;;;;;;;25.00;20.43;;;;;;;;;;5015352;28;20810;-72
2023/05/09 07:45:50;;;;;;;28.40;21.57;;;;;;;;;;5015106;28;20442;-72
2023/05/09 07:48:18;;;;;;;24.97;22.27;;;;;;;;;;5015602;28;20438;-72
2023/05/09 07:50:46;;;;;;;31.37;23.07;;;;;;;;;;5015279;28;20512;-72
2023/05/09 07:53:13;;;;;;;24.40;20.30;;;;;;;;;;5015229;28;20439;-72
2023/05/09 07:55:41;;;;;;;27.10;22.67;;;;;;;;;;5015316;28;20449;-72
2023/05/09 07:58:08;;;;;;;27.73;24.17;;;;;;;;;;5015051;28;20477;-72
2023/05/09 08:00:35;;;;;;;26.33;21.03;;;;;;;;;;5015116;28;20449;-71
2023/05/09 08:03:02;;;;;;;22.43;20.03;;;;;;;;;;5015304;28;20440;-72
2023/05/09 08:05:29;;;;;;;23.93;19.80;;;;;;;;;;5014569;28;20447;-72
2023/05/09 08:07:58;;;;;;;25.23;21.77;;;;;;;;;;5014519;28;20450;-72
2023/05/09 08:10:25;;;;;;;22.50;19.40;;;;;;;;;;5014775;28;20438;-72
2023/05/09 08:12:52;;;;;;;23.23;19.83;;;;;;;;;;5014647;28;20957;-72
2023/05/09 08:15:20;;;;;;;21.10;18.90;;;;;;;;;;5015229;28;20457;-71
2023/05/09 08:17:47;;;;;;;19.50;17.50;;;;;;;;;;5015156;28;20479;-72
2023/05/09 08:20:14;;;;;;;21.53;18.30;;;;;;;;;;5014537;28;20447;-72
2023/05/09 08:22:41;;;;;;;22.40;20.10;;;;;;;;;;5013831;28;20447;-72
2023/05/09 08:25:12;;;;;;;20.53;18.33;;;;;;;;;;5014890;28;20526;-72
2023/05/09 08:27:39;;;;;;;22.07;19.77;;;;;;;;;;5014674;28;20428;-72
2023/05/09 08:30:07;;;;;;;19.23;17.20;;;;;;;;;;5014565;28;20526;-72
2023/05/09 08:32:34;;;;;;;22.97;18.33;;;;;;;;;;5013933;28;20451;-72
2023/05/09 08:35:02;;;;;;;23.50;19.07;;;;;;;;;;5013991;28;20451;-72
2023/05/09 08:37:29;;;;;;;21.53;18.83;;;;;;;;;;5013701;28;20495;-72
2023/05/09 08:39:57;;;;;;;23.00;17.83;;;;;;;;;;5014073;28;20534;-71
2023/05/09 08:42:26;;;;;;;24.50;19.30;;;;;;;;;;5014475;28;20441;-71
2023/05/09 08:44:54;;;;;;;21.87;18.13;;;;;;;;;;5014069;28;20540;-71
2023/05/09 08:47:21;;;;;;;22.57;18.13;;;;;;;;;;5014567;28;20541;-71
2023/05/09 08:49:49;;;;;;;19.00;16.83;;;;;;;;;;5013986;28;20450;-72
2023/05/09 08:52:16;;;;;;;20.83;18.67;;;;;;;;;;5013744;28;20821;-71
2023/05/09 08:54:45;;;;;;;19.23;16.93;;;;;;;;;;5013900;28;20462;-72
2023/05/09 08:57:12;;;;;;;20.83;17.93;;;;;;;;;;5013494;28;20511;-71
2023/05/09 08:59:44;;;;;;;20.37;17.53;;;;;;;;;;5014207;28;20796;-71
2023/05/09 09:02:13;;;;;;;19.93;17.80;;;;;;;;;;5013822;28;20515;-71
2023/05/09 09:04:40;;;;;;;19.07;17.17;;;;;;;;;;5014346;28;20432;-71
2023/05/09 09:07:08;;;;;;;20.60;17.27;;;;;;;;;;5013905;28;20450;-71
2023/05/09 09:09:36;;;;;;;18.47;16.57;;;;;;;;;;5013839;28;20443;-71
2023/05/09 09:12:06;;;;;;;18.93;16.93;;;;;;;;;;5013736;28;20451;-72
2023/05/09 09:14:38;;;;;;;19.30;16.40;;;;;;;;;;5014219;28;20436;-71
2023/05/09 09:17:09;;;;;;;18.80;16.77;;;;;;;;;;5013703;28;20464;-71
2023/05/09 09:19:36;;;;;;;19.60;17.70;;;;;;;;;;5013418;28;20477;-71
2023/05/09 09:22:04;;;;;;;18.27;16.37;;;;;;;;;;5013306;28;21007;-70
2023/05/09 09:24:32;;;;;;;18.33;16.60;;;;;;;;;;5013637;28;20443;-71
2023/05/09 09:27:05;;;;;;;18.40;15.87;;;;;;;;;;5013516;28;20573;-72
2023/05/09 09:29:33;;;;;;;19.20;17.27;;;;;;;;;;5014380;28;20955;-70
2023/05/09 09:32:02;;;;;;;22.83;18.70;;;;;;;;;;5013518;28;20452;-70
2023/05/09 09:34:31;;;;;;;21.17;16.83;;;;;;;;;;5013247;28;20451;-70
2023/05/09 09:36:58;;;;;;;20.23;18.23;;;;;;;;;;5013236;28;20785;-71
2023/05/09 09:39:26;;;;;;;20.90;17.67;;;;;;;;;;5013591;28;20781;-71
2023/05/09 09:41:53;;;;;;;19.37;17.47;;;;;;;;;;5013578;28;20450;-71
2023/05/09 09:44:20;;;;;;;21.60;19.40;;;;;;;;;;5013459;28;20449;-71
2023/05/09 09:46:50;;;;;;;21.00;18.07;;;;;;;;;;5013293;28;20451;-71
2023/05/09 09:49:17;;;;;;;19.53;17.50;;;;;;;;;;5013429;28;20870;-71
2023/05/09 09:51:50;;;;;;;20.60;18.47;;;;;;;;;;5013708;28;20450;-70
2023/05/09 09:54:17;;;;;;;20.30;18.27;;;;;;;;;;5013364;28;20430;-71
2023/05/09 09:56:45;;;;;;;20.20;18.00;;;;;;;;;;5012824;28;20534;-71
2023/05/09 09:59:13;;;;;;;24.63;20.00;;;;;;;;;;5013354;28;20475;-71
2023/05/09 10:01:54;;;;;;;20.17;18.03;;;;;;;;;;5013142;28;20443;-71
2023/05/09 10:04:21;;;;;;;19.47;17.03;;;;;;;;;;5012968;28;20435;-71
2023/05/09 10:06:59;;;;;;;17.97;16.00;;;;;;;;;;5012734;28;20929;-72
2023/05/09 10:09:27;;;;;;;18.50;16.60;;;;;;;;;;5016715;28;20753;-72
2023/05/09 10:11:55;;;;;;;18.33;16.50;;;;;;;;;;5016936;28;20451;-71
2023/05/09 10:14:23;;;;;;;18.57;16.43;;;;;;;;;;5017084;28;20446;-72
2023/05/09 10:16:51;;;;;;;18.10;16.20;;;;;;;;;;5016883;28;20443;-71
2023/05/09 10:19:19;;;;;;;19.10;16.60;;;;;;;;;;5016526;28;20483;-72
2023/05/09 10:21:50;;;;;;;20.93;16.83;;;;;;;;;;5017070;28;20440;-72
2023/05/09 10:24:22;;;;;;;17.83;15.83;;;;;;;;;;5016619;28;20896;-70
2023/05/09 10:26:50;;;;;;;22.27;15.97;;;;;;;;;;5017265;28;20515;-71
2023/05/09 10:29:21;;;;;;;18.57;16.60;;;;;;;;;;5016837;28;20512;-70
2023/05/09 10:31:51;;;;;;;18.10;16.07;;;;;;;;;;5016979;28;20789;-72
2023/05/09 10:34:19;;;;;;;17.10;15.30;;;;;;;;;;5016541;28;20445;-72
2023/05/09 10:36:47;;;;;;;17.23;15.53;;;;;;;;;;5015879;28;20528;-71
2023/05/09 10:39:14;;;;;;;17.50;15.80;;;;;;;;;;5016811;28;20492;-71
2023/05/09 10:41:43;;;;;;;16.93;15.33;;;;;;;;;;5016307;28;20444;-71
2023/05/09 10:44:11;;;;;;;14.50;13.20;;;;;;;;;;5016120;28;20486;-70
2023/05/09 10:46:38;;;;;;;16.87;14.70;;;;;;;;;;5016499;28;20788;-71
2023/05/09 10:49:05;;;;;;;16.07;14.47;;;;;;;;;;5016368;28;20455;-71
2023/05/09 10:51:33;;;;;;;14.23;12.80;;;;;;;;;;5015872;28;20440;-72
2023/05/09 10:54:00;;;;;;;15.90;13.50;;;;;;;;;;5016755;28;20467;-71
2023/05/09 10:56:30;;;;;;;16.13;14.43;;;;;;;;;;5016284;28;20533;-72
2023/05/09 10:58:59;;;;;;;15.57;13.40;;;;;;;;;;5016071;28;20838;-71
2023/05/09 11:01:30;;;;;;;14.57;13.10;;;;;;;;;;5016109;28;20800;-71
2023/05/09 11:03:58;;;;;;;14.47;12.57;;;;;;;;;;5016297;28;20445;-72
2023/05/09 11:06:42;;;;;;;14.00;12.57;;;;;;;;;;5016521;28;20915;-71
2023/05/09 11:09:26;;;;;;;12.73;11.43;;;;;;;;;;5015922;28;20496;-72
2023/05/09 11:11:54;;;;;;;11.83;10.73;;;;;;;;;;5016217;28;20457;-72
2023/05/09 11:14:33;;;;;;;11.83;10.73;;;;;;;;;;5015533;28;20446;-72
2023/05/09 11:17:02;;;;;;;11.23;10.23;;;;;;;;;;5015761;28;20449;-71
2023/05/09 11:19:37;;;;;;;10.70;9.70;;;;;;;;;;5015123;28;20576;-70
2023/05/09 11:22:12;;;;;;;10.83;9.50;;;;;;;;;;5015803;28;20455;-71
2023/05/09 11:24:39;;;;;;;11.53;9.50;;;;;;;;;;5015448;28;20972;-71
2023/05/09 11:27:07;;;;;;;10.57;9.40;;;;;;;;;;5015238;28;20453;-72
2023/05/09 11:29:45;;;;;;;10.30;9.20;;;;;;;;;;5015304;28;20490;-71
2023/05/09 11:32:15;;;;;;;11.83;10.63;;;;;;;;;;5015034;28;20441;-69
2023/05/09 11:34:43;;;;;;;14.60;11.20;;;;;;;;;;5015441;28;20507;-77
2023/05/09 11:37:11;;;;;;;11.97;10.60;;;;;;;;;;5015312;28;20477;-70
2023/05/09 11:39:53;;;;;;;10.57;9.40;;;;;;;;;;5015021;28;20469;-69
2023/05/09 11:42:21;;;;;;;11.33;10.23;;;;;;;;;;5015705;28;20513;-67
2023/05/09 11:44:50;;;;;;;10.97;9.83;;;;;;;;;;5015235;28;20442;-68
2023/05/09 11:47:17;;;;;;;10.90;9.90;;;;;;;;;;5014818;28;20444;-74
2023/05/09 11:49:45;;;;;;;10.30;9.30;;;;;;;;;;5014991;28;20449;-69
2023/05/09 11:52:12;;;;;;;10.07;9.07;;;;;;;;;;5015001;28;20438;-68
2023/05/09 11:54:39;;;;;;;10.67;9.73;;;;;;;;;;5015426;28;20439;-68
2023/05/09 11:57:07;;;;;;;9.13;8.30;;;;;;;;;;5014607;28;20943;-68
2023/05/09 11:59:35;;;;;;;10.30;9.30;;;;;;;;;;5014381;28;20489;-68
2023/05/09 12:02:04;;;;;;;12.20;8.33;;;;;;;;;;5014855;28;20468;-66
2023/05/09 12:04:32;;;;;;;10.53;8.60;;;;;;;;;;5014541;28;20448;-67
2023/05/09 12:06:59;;;;;;;10.10;8.63;;;;;;;;;;5014288;28;20512;-68
2023/05/09 12:09:27;;;;;;;8.60;7.90;;;;;;;;;;5014367;28;20931;-69
2023/05/09 12:11:54;;;;;;;8.63;7.83;;;;;;;;;;5014750;28;20457;-68
2023/05/09 12:14:27;;;;;;;8.67;7.30;;;;;;;;;;5014589;28;20442;-67
2023/05/09 12:16:54;;;;;;;7.93;7.33;;;;;;;;;;5014638;28;20508;-68
2023/05/09 12:19:23;;;;;;;7.83;7.23;;;;;;;;;;5014370;28;20475;-68
2023/05/09 12:21:55;;;;;;;8.20;7.43;;;;;;;;;;5014476;28;20492;-68
2023/05/09 12:24:22;;;;;;;8.20;7.40;;;;;;;;;;5014112;28;20904;-68
2023/05/09 12:26:50;;;;;;;7.70;7.00;;;;;;;;;;5014131;28;20446;-67
2023/05/09 12:29:18;;;;;;;8.53;6.13;;;;;;;;;;5014325;28;20666;-68
2023/05/09 12:31:45;;;;;;;9.47;8.57;;;;;;;;;;5013305;28;20454;-68
2023/05/09 12:34:12;;;;;;;45.70;31.80;;;;;;;;;;5014470;28;20453;-68
2023/05/09 12:36:41;;;;;;;12.60;8.30;;;;;;;;;;5014207;28;20446;-68
2023/05/09 12:39:09;;;;;;;7.97;6.57;;;;;;;;;;4975215;28;20833;-68
2023/05/09 12:41:43;;;;;;;8.40;7.13;;;;;;;;;;4975281;28;20453;-68
2023/05/09 12:44:10;;;;;;;9.97;8.33;;;;;;;;;;4974842;28;20527;-66
2023/05/09 12:46:37;;;;;;;9.57;8.77;;;;;;;;;;4975159;28;20475;-68
2023/05/09 12:49:05;;;;;;;7.07;6.37;;;;;;;;;;4974799;28;20454;-66
2023/05/09 12:51:32;;;;;;;8.33;7.10;;;;;;;;;;4975126;28;20448;-67
2023/05/09 12:54:04;;;;;;;7.77;6.50;;;;;;;;;;4974710;28;20450;-69
2023/05/09 12:56:34;;;;;;;7.40;6.80;;;;;;;;;;4975321;28;20798;-65
2023/05/09 12:59:13;;;;;;;7.10;6.53;;;;;;;;;;4975050;28;20543;-67
2023/05/09 13:01:41;;;;;;;7.80;7.10;;;;;;;;;;4974818;28;20767;-66
2023/05/09 13:04:10;;;;;;;7.23;6.63;;;;;;;;;;4974729;28;20825;-68
2023/05/09 13:06:48;;;;;;;8.00;7.20;;;;;;;;;;4974322;28;20446;-67
2023/05/09 13:09:17;;;;;;;7.30;6.70;;;;;;;;;;4974693;28;20435;-66
2023/05/09 13:11:44;;;;;;;9.63;7.93;;;;;;;;;;4974591;28;20449;-66
2023/05/09 13:14:11;;;;;;;7.60;7.00;;;;;;;;;;4974497;28;20455;-66
2023/05/09 13:16:38;;;;;;;8.10;7.50;;;;;;;;;;4974250;28;20451;-66
2023/05/09 13:19:05;;;;;;;7.93;7.33;;;;;;;;;;4974294;28;20490;-67
2023/05/09 13:21:33;;;;;;;7.60;6.93;;;;;;;;;;4974386;28;20443;-68
2023/05/09 13:24:00;;;;;;;8.23;7.63;;;;;;;;;;4974307;28;20454;-66
2023/05/09 13:26:28;;;;;;;8.60;7.43;;;;;;;;;;4974812;28;20449;-66
2023/05/09 13:28:56;;;;;;;9.60;7.73;;;;;;;;;;4974683;28;20455;-66
2023/05/09 13:31:23;;;;;;;8.00;7.30;;;;;;;;;;4974438;28;20455;-67
2023/05/09 13:33:50;;;;;;;7.57;6.87;;;;;;;;;;4974225;28;20453;-67
2023/05/09 13:36:17;;;;;;;8.20;7.50;;;;;;;;;;4974062;28;20492;-67
2023/05/09 13:38:45;;;;;;;9.33;8.43;;;;;;;;;;5007684;28;20929;-67
2023/05/09 13:41:18;;;;;;;10.30;8.60;;;;;;;;;;5013397;28;20448;-66
2023/05/09 13:43:47;;;;;;;11.30;9.80;;;;;;;;;;5015324;28;20441;-67
2023/05/09 13:46:14;;;;;;;11.70;8.70;;;;;;;;;;5017209;28;20937;-67
2023/05/09 13:48:41;;;;;;;13.97;9.90;;;;;;;;;;5017089;28;20451;-68
2023/05/09 13:51:09;;;;;;;12.50;9.20;;;;;;;;;;5017396;28;20447;-66
2023/05/09 13:53:37;;;;;;;11.43;9.60;;;;;;;;;;5016933;28;20447;-67
2023/05/09 13:56:05;;;;;;;11.80;9.10;;;;;;;;;;5017189;28;20451;-66
2023/05/09 13:58:32;;;;;;;17.67;12.10;;;;;;;;;;5016841;28;20477;-66
2023/05/09 14:01:01;;;;;;;15.43;13.50;;;;;;;;;;5016733;28;20448;-66
2023/05/09 14:03:28;;;;;;;15.67;12.50;;;;;;;;;;5016720;28;20444;-66
2023/05/09 14:05:55;;;;;;;17.53;13.93;;;;;;;;;;5016939;28;20804;-66
2023/05/09 14:08:23;;;;;;;21.33;15.90;;;;;;;;;;5016768;28;20560;-66
2023/05/09 14:10:50;;;;;;;18.33;16.27;;;;;;;;;;5016601;28;20443;-66
2023/05/09 14:13:17;;;;;;;16.87;14.47;;;;;;;;;;5016990;28;20802;-66
2023/05/09 14:15:44;;;;;;;19.90;14.00;;;;;;;;;;5016708;28;20445;-66
2023/05/09 14:18:13;;;;;;;19.83;15.03;;;;;;;;;;5016694;28;20446;-66
2023/05/09 14:20:41;;;;;;;16.07;14.07;;;;;;;;;;5016342;28;20566;-65
2023/05/09 14:23:08;;;;;;;22.37;14.10;;;;;;;;;;5016688;28;20459;-66
2023/05/09 14:25:35;;;;;;;19.43;15.07;;;;;;;;;;5016473;28;20445;-66
2023/05/09 14:28:02;;;;;;;14.67;13.27;;;;;;;;;;5016467;28;20446;-66